Time;durP1;ratioP1;P1;durP2;ratioP2;P2;SDS_P1;SDS_P2;PMS_P1;PMS_P2;Temp;Humidity;BMP_temperature;BMP_pressure;BME280_temperature;BME280_humidity;BME280_pressure;Samples;Min_cycle;Max_cycle;Signal;HPM_P1;HPM_P2
2022/09/25 00:04:41;;;;;;;0.10;0.08;;;;;;;9.58;100.00;101906.56;10397563;28;20073;-76
2022/09/25 00:09:43;;;;;;;0.08;0.08;;;;;;;9.64;100.00;101896.56;10415742;28;20077;-76
2022/09/25 00:14:49;;;;;;;0.00;0.00;;;;;;;9.59;100.00;101913.47;10450027;28;20061;-77
2022/09/25 00:19:50;;;;;;;0.00;0.00;;;;;;;9.58;100.00;101912.59;10419962;28;20045;-77
2022/09/25 00:24:52;;;;;;;0.45;0.03;;;;;;;9.38;100.00;101905.66;10412706;28;20053;-77
2022/09/25 00:29:53;;;;;;;0.10;0.00;;;;;;;9.10;100.00;101905.22;10414079;28;20484;-77
2022/09/25 00:34:55;;;;;;;0.32;0.32;;;;;;;9.18;100.00;101903.91;10415298;28;20069;-77
2022/09/25 00:39:56;;;;;;;0.05;0.05;;;;;;;9.17;100.00;101914.09;10413831;28;20034;-77
2022/09/25 00:45:00;;;;;;;2.17;0.43;;;;;;;9.24;100.00;101923.00;10413563;28;20073;-77
2022/09/25 00:50:12;;;;;;;0.00;0.00;;;;;;;9.14;100.00;101919.97;10414492;28;20124;-77
2022/09/25 00:55:14;;;;;;;0.75;0.30;;;;;;;9.08;100.00;101914.53;10414778;28;20596;-77
2022/09/25 01:00:16;;;;;;;0.03;0.03;;;;;;;9.09;100.00;101918.88;10418792;28;20042;-77
2022/09/25 01:05:23;;;;;;;0.00;0.00;;;;;;;9.05;100.00;101924.66;10404039;28;20060;-77
2022/09/25 01:10:24;;;;;;;0.10;0.10;;;;;;;9.13;100.00;101933.63;10403983;28;20148;-76
2022/09/25 01:15:40;;;;;;;0.00;0.00;;;;;;;9.03;100.00;101927.16;10421523;28;20128;-77
2022/09/25 01:21:08;;;;;;;0.32;0.32;;;;;;;8.99;100.00;101934.66;10421255;28;20051;-77
2022/09/25 01:26:42;;;;;;;0.00;0.00;;;;;;;9.01;100.00;101930.47;10403464;28;20149;-77
2022/09/25 01:32:12;;;;;;;0.38;0.38;;;;;;;8.88;100.00;101927.31;10419373;28;20570;-77
2022/09/25 01:37:23;;;;;;;0.00;0.00;;;;;;;8.75;100.00;101937.75;10402946;28;20111;-77
2022/09/25 01:42:28;;;;;;;;;;;;;;;8.66;100.00;101934.75;10440515;28;20083;-77
2022/09/25 01:47:39;;;;;;;0.00;0.00;;;;;;;8.69;100.00;101935.78;10444189;28;19943;-77
2022/09/25 01:52:46;;;;;;;0.08;0.08;;;;;;;8.77;100.00;101938.72;10456210;28;20073;-76
2022/09/25 01:58:03;;;;;;;0.05;0.05;;;;;;;8.80;100.00;101946.59;10418814;28;20404;-77
2022/09/25 02:03:17;;;;;;;0.00;0.00;;;;;;;8.71;100.00;101935.84;10418399;28;20136;-76
2022/09/25 02:08:24;;;;;;;0.00;0.00;;;;;;;8.65;100.00;101923.59;10419535;28;20164;-76
2022/09/25 02:13:33;;;;;;;0.10;0.00;;;;;;;8.71;100.00;101925.59;10401601;28;20485;-76
2022/09/25 02:24:16;;;;;;;0.22;0.17;;;;;;;8.60;100.00;101913.91;10418318;28;20485;-76
2022/09/25 02:29:18;;;;;;;0.00;0.00;;;;;;;8.37;100.00;101913.59;10400925;28;20077;-76
2022/09/25 02:34:21;;;;;;;0.22;0.22;;;;;;;8.43;100.00;101916.47;10400461;28;20045;-76
2022/09/25 02:39:27;;;;;;;0.00;0.00;;;;;;;8.26;100.00;101919.03;10400689;28;20057;-76
2022/09/25 02:44:51;;;;;;;0.00;0.00;;;;;;;8.10;100.00;101911.34;10400442;28;20045;-77
2022/09/25 02:50:04;;;;;;;0.00;0.00;;;;;;;8.09;100.00;101914.69;10417098;28;20072;-76
2022/09/25 02:55:14;;;;;;;0.00;0.00;;;;;;;7.84;100.00;101903.16;10417738;28;20095;-76
2022/09/25 03:00:16;;;;;;;0.00;0.00;;;;;;;7.93;100.00;101907.91;10417823;28;20061;-77
2022/09/25 03:05:20;;;;;;;0.00;0.00;;;;;;;7.69;100.00;101912.59;10417241;28;20475;-77
2022/09/25 03:10:22;;;;;;;0.00;0.00;;;;;;;7.65;100.00;101890.13;10415593;28;20050;-76
2022/09/25 03:15:24;;;;;;;0.00;0.00;;;;;;;7.68;100.00;101887.75;10416611;28;20081;-76
2022/09/25 03:20:25;;;;;;;0.20;0.20;;;;;;;7.57;100.00;101893.19;10416321;28;20037;-77
2022/09/25 03:25:27;;;;;;;0.00;0.00;;;;;;;7.49;100.00;101891.00;10416931;28;20095;-77
2022/09/25 03:30:28;;;;;;;0.00;0.00;;;;;;;7.60;100.00;101897.59;10414986;28;20045;-76
2022/09/25 03:35:30;;;;;;;0.20;0.10;;;;;;;7.24;100.00;101898.25;10450587;28;20048;-77
2022/09/25 03:40:32;;;;;;;1.30;0.45;;;;;;;7.22;100.00;101893.81;10455959;28;20539;-77
2022/09/25 03:45:33;;;;;;;0.00;0.00;;;;;;;7.20;100.00;101892.84;10422505;28;20056;-77
2022/09/25 03:50:35;;;;;;;0.10;0.10;;;;;;;7.11;100.00;101894.09;10414222;28;20107;-76
2022/09/25 03:55:36;;;;;;;0.00;0.00;;;;;;;7.09;100.00;101892.25;10415174;28;20084;-77
2022/09/25 04:00:38;;;;;;;0.00;0.00;;;;;;;7.19;100.00;101899.63;10414254;28;20128;-76
2022/09/25 04:05:41;;;;;;;0.00;0.00;;;;;;;7.28;100.00;101902.72;10415531;28;20056;-76
2022/09/25 04:10:42;;;;;;;1.80;0.75;;;;;;;7.42;100.00;101905.16;10414782;28;20125;-76
2022/09/25 04:15:44;;;;;;;0.00;0.00;;;;;;;7.25;100.00;101900.00;10415338;28;20049;-77
2022/09/25 04:20:45;;;;;;;0.00;0.00;;;;;;;6.97;100.00;101887.31;10426080;28;20048;-77
2022/09/25 04:25:48;;;;;;;0.00;0.00;;;;;;;7.30;100.00;101908.81;10400118;28;20116;-76
2022/09/25 04:30:49;;;;;;;0.00;0.00;;;;;;;7.29;100.00;101907.06;10414193;28;20125;-76
2022/09/25 04:35:51;;;;;;;0.00;0.00;;;;;;;7.23;100.00;101921.19;10402417;28;20065;-78
2022/09/25 04:40:52;;;;;;;0.00;0.00;;;;;;;7.18;100.00;101913.28;10404111;28;20103;-77
2022/09/25 04:45:54;;;;;;;0.00;0.00;;;;;;;7.25;100.00;101920.50;10442264;28;20500;-76
2022/09/25 04:50:57;;;;;;;0.00;0.00;;;;;;;7.02;100.00;101923.44;10420023;28;20072;-77
2022/09/25 04:56:04;;;;;;;0.00;0.00;;;;;;;7.17;100.00;101931.09;10403525;28;20044;-77
2022/09/25 05:01:08;;;;;;;0.00;0.00;;;;;;;7.08;100.00;101934.03;10432720;28;20116;-77
2022/09/25 05:06:09;;;;;;;0.08;0.08;;;;;;;7.10;100.00;101924.78;10403160;28;20045;-78
2022/09/25 05:11:11;;;;;;;0.25;0.10;;;;;;;6.94;100.00;101928.13;10418580;28;20057;-77
2022/09/25 05:16:12;;;;;;;0.85;0.40;;;;;;;7.11;100.00;101929.09;10435157;28;20073;-77
2022/09/25 05:21:14;;;;;;;0.08;0.08;;;;;;;6.97;100.00;101926.63;10419195;28;20140;-77
2022/09/25 05:26:16;;;;;;;0.00;0.00;;;;;;;6.76;100.00;101915.16;10417076;28;20049;-76
2022/09/25 05:31:18;;;;;;;0.15;0.10;;;;;;;6.77;100.00;101916.91;10447498;28;20115;-77
2022/09/25 05:36:20;;;;;;;0.22;0.15;;;;;;;7.07;100.00;101919.47;10419930;28;20056;-77
2022/09/25 05:41:21;;;;;;;0.28;0.28;;;;;;;6.97;100.00;101916.38;10419389;28;20125;-77
2022/09/25 05:46:23;;;;;;;0.43;0.40;;;;;;;6.98;100.00;101910.47;10417727;28;20053;-77
2022/09/25 05:51:25;;;;;;;0.70;0.40;;;;;;;7.19;100.00;101917.59;10433059;28;20041;-77
2022/09/25 05:56:26;;;;;;;0.90;0.63;;;;;;;7.42;100.00;101915.41;10432323;28;20048;-77
2022/09/25 06:01:28;;;;;;;0.30;0.30;;;;;;;7.60;100.00;101908.75;10432679;28;20104;-76
2022/09/25 06:06:30;;;;;;;0.60;0.40;;;;;;;7.75;100.00;101898.41;10400811;28;20037;-76
2022/09/25 06:11:32;;;;;;;0.55;0.55;;;;;;;8.02;100.00;101886.94;10422809;28;20083;-77
2022/09/25 06:16:34;;;;;;;1.48;0.65;;;;;;;8.34;100.00;101869.75;10409130;28;20065;-77
2022/09/25 06:21:35;;;;;;;0.00;0.00;;;;;;;8.82;100.00;101855.06;10416539;28;20107;-77
2022/09/25 06:26:37;;;;;;;0.00;0.00;;;;;;;8.97;100.00;101846.31;10434091;28;20090;-77
2022/09/25 06:31:38;;;;;;;0.00;0.00;;;;;;;9.42;100.00;101820.97;10441172;28;20049;-76
2022/09/25 06:36:41;;;;;;;0.00;0.00;;;;;;;9.53;100.00;101806.91;10400068;28;20049;-76
2022/09/25 06:41:42;;;;;;;0.00;0.00;;;;;;;9.77;100.00;101790.78;10430172;28;20519;-77
2022/09/25 06:46:48;;;;;;;0.65;0.63;;;;;;;9.97;100.00;101785.63;10399941;28;20064;-76
2022/09/25 06:51:50;;;;;;;0.20;0.20;;;;;;;10.65;100.00;101765.22;10401777;28;20041;-77
2022/09/25 06:56:51;;;;;;;0.05;0.05;;;;;;;10.42;100.00;101754.03;10399117;28;20456;-77
2022/09/25 07:01:53;;;;;;;0.10;0.03;;;;;;;10.31;100.00;101756.13;10443628;28;20073;-77
2022/09/25 07:06:57;;;;;;;0.08;0.05;;;;;;;10.34;100.00;101774.28;10399207;28;20149;-77
2022/09/25 07:11:58;;;;;;;0.00;0.00;;;;;;;10.32;100.00;101770.75;10416284;28;20488;-77
2022/09/25 07:17:00;;;;;;;1.23;0.93;;;;;;;10.56;100.00;101777.75;10403464;28;20468;-77
2022/09/25 07:22:03;;;;;;;0.00;0.00;;;;;;;11.22;100.00;101753.63;10451410;28;20040;-78
2022/09/25 07:27:05;;;;;;;0.20;0.20;;;;;;;11.00;100.00;101696.09;10405909;28;20049;-77
2022/09/25 07:32:07;;;;;;;0.00;0.00;;;;;;;11.28;100.00;101686.78;10407532;28;20072;-77
2022/09/25 07:37:08;;;;;;;0.00;0.00;;;;;;;11.30;100.00;101679.97;10414278;28;20064;-77
2022/09/25 07:42:10;;;;;;;0.10;0.10;;;;;;;12.14;100.00;101669.88;10397984;28;20057;-77
2022/09/25 07:47:14;;;;;;;0.00;0.00;;;;;;;12.07;100.00;101650.72;10415651;28;20045;-77
2022/09/25 07:52:15;;;;;;;0.00;0.00;;;;;;;12.29;100.00;101636.78;10415410;28;20492;-77
2022/09/25 07:57:19;;;;;;;0.10;0.08;;;;;;;12.62;100.00;101615.34;10415341;28;20075;-77
2022/09/25 08:02:20;;;;;;;0.00;0.00;;;;;;;12.82;100.00;101602.13;10390749;28;20042;-77
2022/09/25 08:07:22;;;;;;;0.10;0.10;;;;;;;13.13;100.00;101602.94;10399019;28;20408;-77
2022/09/25 08:12:25;;;;;;;0.00;0.00;;;;;;;12.98;100.00;101596.53;10429203;28;20064;-78
2022/09/25 08:17:30;;;;;;;0.00;0.00;;;;;;;12.83;100.00;101588.34;10424681;28;20471;-78
2022/09/25 08:22:32;;;;;;;0.65;0.20;;;;;;;13.78;100.00;101594.25;10428712;28;20465;-78
2022/09/25 08:27:39;;;;;;;0.00;0.00;;;;;;;13.23;100.00;101562.66;10424622;28;20556;-77
2022/09/25 08:32:41;;;;;;;0.00;0.00;;;;;;;13.86;100.00;101569.41;10409245;28;20384;-78
2022/09/25 08:37:44;;;;;;;0.00;0.00;;;;;;;13.44;100.00;101563.22;10431325;28;20401;-78
2022/09/25 08:42:49;;;;;;;0.00;0.00;;;;;;;14.70;100.00;101547.84;10428454;28;20049;-78
2022/09/25 08:53:24;;;;;;;0.00;0.00;;;;;;;14.69;100.00;101540.91;10470396;28;20065;-77
2022/09/25 08:58:30;;;;;;;0.00;0.00;;;;;;;14.50;100.00;101545.69;10468378;28;20083;-77
2022/09/25 09:03:38;;;;;;;0.00;0.00;;;;;;;14.73;100.00;101532.34;10451919;28;20041;-77
2022/09/25 09:08:41;;;;;;;0.10;0.10;;;;;;;14.65;100.00;101549.44;10451429;28;20053;-78
2022/09/25 09:14:09;;;;;;;0.30;0.25;;;;;;;14.91;100.00;101543.06;10468770;28;20124;-78
2022/09/25 09:19:11;;;;;;;0.00;0.00;;;;;;;15.03;100.00;101531.16;10468140;28;20116;-76
2022/09/25 09:24:24;;;;;;;0.30;0.10;;;;;;;15.77;100.00;101515.88;10461869;28;20073;-77
2022/09/25 09:29:44;;;;;;;0.00;0.00;;;;;;;15.62;100.00;101522.59;10462498;28;20049;-77
2022/09/25 09:35:04;;;;;;;;;;;;;;;15.01;100.00;101517.25;10461513;28;20515;-76
2022/09/25 09:40:29;;;;;;;0.20;0.20;;;;;;;15.61;100.00;101520.84;10424131;28;19921;-79
2022/09/25 09:45:45;;;;;;;0.00;0.00;;;;;;;15.35;100.00;101502.28;10403749;28;20060;-77
2022/09/25 09:50:55;;;;;;;0.00;0.00;;;;;;;15.36;100.00;101498.81;10403764;28;20519;-78
2022/09/25 09:56:08;;;;;;;0.00;0.00;;;;;;;16.33;100.00;101486.31;10403033;28;20469;-78
2022/09/25 10:01:12;;;;;;;0.00;0.00;;;;;;;15.79;100.00;101482.97;10421861;28;20052;-78
2022/09/25 10:06:37;;;;;;;0.00;0.00;;;;;;;16.47;100.00;101478.63;10410157;28;20034;-76
2022/09/25 10:11:40;;;;;;;0.00;0.00;;;;;;;15.60;100.00;101487.06;10403060;28;20076;-77
2022/09/25 10:16:42;;;;;;;1.90;0.85;;;;;;;16.16;100.00;101479.16;10422129;28;20132;-78
2022/09/25 10:21:57;;;;;;;0.00;0.00;;;;;;;14.46;100.00;101481.69;10421838;28;20045;-77
2022/09/25 10:27:45;;;;;;;0.00;0.00;;;;;;;15.92;100.00;101471.06;10423929;28;20136;-78
2022/09/25 10:33:13;;;;;;;0.13;0.10;;;;;;;17.13;100.00;101460.19;10402365;28;20116;-77
2022/09/25 10:38:28;;;;;;;0.20;0.10;;;;;;;16.58;100.00;101457.94;10422618;28;20065;-78
2022/09/25 10:43:30;;;;;;;0.45;0.00;;;;;;;16.49;100.00;101451.78;10419710;28;20082;-79
2022/09/25 10:54:12;;;;;;;0.20;0.00;;;;;;;15.60;100.00;101455.91;10403338;28;20045;-78
2022/09/25 10:59:19;;;;;;;0.17;0.10;;;;;;;16.24;100.00;101449.78;10418377;28;20050;-77
2022/09/25 11:04:30;;;;;;;0.17;0.00;;;;;;;17.28;100.00;101438.59;10400176;28;20037;-78
2022/09/25 11:09:35;;;;;;;0.00;0.00;;;;;;;16.29;100.00;101432.50;10416072;28;20508;-78
2022/09/25 11:14:41;;;;;;;0.00;0.00;;;;;;;15.40;100.00;101451.28;10418029;28;20077;-78
2022/09/25 11:19:42;;;;;;;0.00;0.00;;;;;;;14.83;100.00;101459.03;10417275;28;20106;-77
2022/09/25 11:25:14;;;;;;;0.00;0.00;;;;;;;14.62;100.00;101461.22;10417098;28;20080;-76
2022/09/25 11:30:21;;;;;;;0.00;0.00;;;;;;;14.58;100.00;101468.06;10415454;28;20200;-77
2022/09/25 11:35:50;;;;;;;0.00;0.00;;;;;;;14.56;100.00;101461.97;10407133;28;20037;-77
2022/09/25 11:41:14;;;;;;;0.00;0.00;;;;;;;15.04;100.00;101460.25;10417178;28;20099;-77
2022/09/25 11:46:42;;;;;;;0.00;0.00;;;;;;;16.13;100.00;101432.34;10415971;28;20156;-77
2022/09/25 11:52:02;;;;;;;0.00;0.00;;;;;;;17.11;100.00;101415.91;10416342;28;20072;-77
2022/09/25 11:57:30;;;;;;;0.00;0.00;;;;;;;16.73;100.00;101406.03;10415617;28;20512;-77
2022/09/25 12:03:00;;;;;;;0.00;0.00;;;;;;;16.56;100.00;101402.44;10417219;28;20045;-77
2022/09/25 12:08:07;;;;;;;0.20;0.00;;;;;;;15.31;100.00;101401.81;10452324;28;20067;-76
2022/09/25 12:13:30;;;;;;;0.00;0.00;;;;;;;15.82;100.00;101392.94;10430469;28;20052;-76
2022/09/25 12:19:22;;;;;;;0.00;0.00;;;;;;;15.63;100.00;101398.78;10416481;28;20058;-76
2022/09/25 12:24:54;;;;;;;0.08;0.00;;;;;;;14.95;100.00;101403.00;10394917;28;20500;-77
2022/09/25 12:30:16;;;;;;;0.00;0.00;;;;;;;14.99;100.00;101399.63;10416610;28;20128;-76
2022/09/25 12:35:37;;;;;;;0.00;0.00;;;;;;;15.67;100.00;101377.22;10399248;28;20555;-76
2022/09/25 12:40:58;;;;;;;0.00;0.00;;;;;;;16.33;100.00;101382.28;10419234;28;20046;-76
2022/09/25 12:46:26;;;;;;;0.00;0.00;;;;;;;15.64;100.00;101364.16;10417518;28;20041;-75
2022/09/25 12:51:36;;;;;;;0.00;0.00;;;;;;;15.10;100.00;101371.25;10356981;28;20080;-77
2022/09/25 12:56:59;;;;;;;0.00;0.00;;;;;;;15.02;100.00;101363.31;10379813;28;20084;-77
2022/09/25 13:02:12;;;;;;;0.00;0.00;;;;;;;15.28;100.00;101350.72;10380577;28;20071;-76
2022/09/25 13:07:41;;;;;;;0.00;0.00;;;;;;;16.39;100.00;101350.25;10383710;28;20543;-77
2022/09/25 13:12:43;;;;;;;0.00;0.00;;;;;;;16.34;100.00;101339.84;10413364;28;20480;-78
2022/09/25 13:17:45;;;;;;;0.00;0.00;;;;;;;16.75;100.00;101331.47;10405208;28;20452;-77
2022/09/25 13:29:37;;;;;;;0.00;0.00;;;;;;;16.72;100.00;101318.44;10420139;28;20381;-77
2022/09/25 13:34:40;;;;;;;0.00;0.00;;;;;;;15.84;100.00;101341.06;10424654;28;20045;-77
2022/09/25 13:45:26;;;;;;;0.00;0.00;;;;;;;14.57;100.00;101360.88;10422724;28;20041;-76
2022/09/25 13:50:40;;;;;;;0.00;0.00;;;;;;;14.35;100.00;101358.75;10404976;28;20117;-76
2022/09/25 13:56:02;;;;;;;0.00;0.00;;;;;;;14.52;100.00;101357.34;10421912;28;20049;-75
2022/09/25 14:01:16;;;;;;;0.00;0.00;;;;;;;14.39;100.00;101356.25;10404704;28;20088;-76
2022/09/25 14:06:23;;;;;;;0.00;0.00;;;;;;;14.52;100.00;101352.16;10419699;28;20077;-76
2022/09/25 14:11:32;;;;;;;0.00;0.00;;;;;;;14.63;100.00;101348.88;10419243;28;20045;-75
2022/09/25 14:16:48;;;;;;;0.00;0.00;;;;;;;14.60;100.00;101334.13;10418677;28;20107;-76
2022/09/25 14:28:45;;;;;;;0.00;0.00;;;;;;;15.53;100.00;101310.38;10419173;28;20033;-75
2022/09/25 14:34:05;;;;;;;0.00;0.00;;;;;;;15.58;100.00;101291.38;10420813;28;20061;-75
2022/09/25 14:39:19;;;;;;;0.00;0.00;;;;;;;15.53;100.00;101299.97;10404393;28;20061;-76
2022/09/25 14:44:30;;;;;;;0.00;0.00;;;;;;;15.85;100.00;101291.72;10417751;28;20087;-77
2022/09/25 14:55:44;;;;;;;0.00;0.00;;;;;;;15.35;100.00;101289.38;10416903;28;20049;-75
2022/09/25 15:00:48;;;;;;;;;;;;;;;15.38;100.00;101289.41;10417220;28;20046;-77
2022/09/25 15:05:50;;;;;;;0.00;0.00;;;;;;;15.25;100.00;101287.50;10418035;28;19927;-76
2022/09/25 15:11:13;;;;;;;0.00;0.00;;;;;;;15.54;100.00;101277.50;10416135;28;20044;-76
2022/09/25 15:21:44;;;;;;;0.00;0.00;;;;;;;14.95;100.00;101278.47;10417114;28;20038;-76
2022/09/25 15:26:55;;;;;;;0.00;0.00;;;;;;;14.55;100.00;101278.72;10398940;28;20056;-77
2022/09/25 15:31:56;;;;;;;0.00;0.00;;;;;;;14.59;100.00;101286.59;10416814;28;20133;-76
2022/09/25 15:37:21;;;;;;;0.00;0.00;;;;;;;14.21;100.00;101286.84;10399130;28;20069;-77
2022/09/25 15:42:22;;;;;;;0.40;0.10;;;;;;;14.20;100.00;101292.00;10417008;28;20515;-77
2022/09/25 15:47:33;;;;;;;0.00;0.00;;;;;;;14.21;100.00;101289.44;10416816;28;20057;-77
2022/09/25 15:52:34;;;;;;;0.00;0.00;;;;;;;14.19;100.00;101296.28;10415699;28;20096;-77
2022/09/25 15:57:36;;;;;;;0.20;0.10;;;;;;;14.14;100.00;101284.97;10415709;28;20072;-76
2022/09/25 16:08:35;;;;;;;0.00;0.00;;;;;;;14.10;100.00;101285.78;10416288;28;20045;-78
2022/09/25 16:13:40;;;;;;;0.30;0.10;;;;;;;14.09;100.00;101282.31;10398441;28;20120;-76
2022/09/25 16:18:41;;;;;;;0.00;0.00;;;;;;;14.09;100.00;101278.84;10398013;28;20104;-77
2022/09/25 16:23:50;;;;;;;0.05;0.05;;;;;;;13.95;100.00;101273.41;10397317;28;20508;-77
2022/09/25 16:29:15;;;;;;;2.25;0.70;;;;;;;14.10;100.00;101276.28;10399958;28;20045;-77
2022/09/25 16:34:27;;;;;;;0.10;0.10;;;;;;;13.68;100.00;101271.19;10423122;28;20197;-77
2022/09/25 16:39:30;;;;;;;0.00;0.00;;;;;;;13.73;100.00;101279.94;10405512;28;20128;-76
2022/09/25 16:44:37;;;;;;;0.00;0.00;;;;;;;13.66;100.00;101272.91;10423511;28;20453;-77
2022/09/25 16:49:39;;;;;;;0.00;0.00;;;;;;;13.48;100.00;101284.63;10431748;28;20059;-76
2022/09/25 16:54:40;;;;;;;0.00;0.00;;;;;;;13.20;100.00;101284.03;10443682;28;20045;-77
2022/09/25 16:59:42;;;;;;;0.00;0.00;;;;;;;13.13;100.00;101285.59;10426543;28;20079;-76
2022/09/25 17:04:43;;;;;;;0.00;0.00;;;;;;;13.07;100.00;101292.38;10463375;28;20120;-76
2022/09/25 17:09:46;;;;;;;0.00;0.00;;;;;;;13.04;100.00;101289.72;10413617;28;20121;-76
2022/09/25 17:14:48;;;;;;;0.20;0.20;;;;;;;12.96;100.00;101289.53;10420771;28;20052;-76
2022/09/25 17:19:50;;;;;;;0.20;0.10;;;;;;;12.76;100.00;101297.72;10403667;28;20045;-76
2022/09/25 17:24:51;;;;;;;0.05;0.05;;;;;;;12.67;100.00;101295.81;10420038;28;20092;-76
2022/09/25 17:29:53;;;;;;;0.10;0.10;;;;;;;12.45;100.00;101306.47;10418790;28;20381;-76
2022/09/25 17:34:57;;;;;;;0.00;0.00;;;;;;;12.31;100.00;101308.69;10443111;28;20052;-76
2022/09/25 17:39:58;;;;;;;0.10;0.00;;;;;;;12.14;100.00;101303.09;10434124;28;20063;-76
2022/09/25 17:45:00;;;;;;;0.10;0.10;;;;;;;12.03;100.00;101306.25;10420476;28;20064;-76
2022/09/25 17:50:01;;;;;;;0.00;0.00;;;;;;;11.78;100.00;101303.84;10402789;28;20057;-76
2022/09/25 17:55:13;;;;;;;0.00;0.00;;;;;;;11.57;100.00;101297.25;10419311;28;20056;-77
2022/09/25 18:00:15;;;;;;;0.10;0.10;;;;;;;11.31;100.00;101305.09;10440026;28;20045;-76
2022/09/25 18:05:17;;;;;;;0.00;0.00;;;;;;;11.32;100.00;101306.00;10459968;28;20044;-76
2022/09/25 18:10:19;;;;;;;0.00;0.00;;;;;;;11.17;100.00;101321.88;10459697;28;20052;-76
2022/09/25 18:15:21;;;;;;;0.00;0.00;;;;;;;10.90;100.00;101317.63;10461745;28;20044;-76
2022/09/25 18:25:43;;;;;;;0.00;0.00;;;;;;;10.46;100.00;101348.84;10459032;28;20141;-76
2022/09/25 18:30:45;;;;;;;0.00;0.00;;;;;;;10.64;100.00;101351.16;10459846;28;20075;-76
2022/09/25 18:35:46;;;;;;;0.00;0.00;;;;;;;10.48;100.00;101355.81;10419853;28;20141;-76
2022/09/25 18:40:48;;;;;;;0.43;0.38;;;;;;;10.20;100.00;101345.38;10417069;28;20079;-76
2022/09/25 18:45:49;;;;;;;0.35;0.10;;;;;;;10.13;100.00;101342.59;10439234;28;20053;-76
2022/09/25 18:50:51;;;;;;;0.00;0.00;;;;;;;9.93;100.00;101341.00;10441374;28;20053;-76
2022/09/25 18:55:56;;;;;;;0.05;0.05;;;;;;;9.64;100.00;101348.56;10457681;28;20048;-76
2022/09/25 19:00:58;;;;;;;0.10;0.05;;;;;;;9.68;100.00;101363.28;10458711;28;20053;-77
2022/09/25 19:06:02;;;;;;;0.03;0.03;;;;;;;9.53;100.00;101369.59;10441028;28;20098;-77
2022/09/25 19:11:12;;;;;;;0.00;0.00;;;;;;;9.52;100.00;101367.84;10440765;28;20128;-77
2022/09/25 19:16:15;;;;;;;0.65;0.10;;;;;;;9.68;100.00;101368.41;10443141;28;20041;-77
2022/09/25 19:21:21;;;;;;;1.98;1.70;;;;;;;9.52;100.00;101364.41;10410734;28;20042;-79
2022/09/25 19:26:26;;;;;;;0.05;0.05;;;;;;;9.48;100.00;101381.44;10416412;28;20052;-80
2022/09/25 19:31:28;;;;;;;2.10;0.30;;;;;;;9.49;100.00;101367.72;10415296;28;20400;-79
2022/09/25 19:36:32;;;;;;;0.00;0.00;;;;;;;9.62;100.00;101363.06;10418466;28;20365;-79
2022/09/25 19:41:36;;;;;;;0.10;0.10;;;;;;;9.48;100.00;101359.94;10415268;28;20037;-79
2022/09/25 19:46:40;;;;;;;0.17;0.10;;;;;;;9.40;100.00;101362.25;10400409;28;20056;-79
2022/09/25 19:51:43;;;;;;;0.00;0.00;;;;;;;9.04;100.00;101367.72;10414052;28;20041;-80
2022/09/25 19:56:45;;;;;;;0.05;0.05;;;;;;;9.19;100.00;101373.47;10413388;28;20104;-80
2022/09/25 20:01:46;;;;;;;0.00;0.00;;;;;;;8.89;100.00;101371.44;10413546;28;20047;-79
2022/09/25 20:06:48;;;;;;;0.45;0.35;;;;;;;9.12;100.00;101380.88;10412919;28;20049;-80
2022/09/25 20:11:50;;;;;;;0.00;0.00;;;;;;;8.83;100.00;101366.03;10418774;28;20114;-79
2022/09/25 20:16:53;;;;;;;0.10;0.10;;;;;;;8.94;100.00;101355.31;10412201;28;20088;-80
2022/09/25 20:21:55;;;;;;;0.00;0.00;;;;;;;8.86;100.00;101358.44;10403558;28;20074;-80
2022/09/25 20:26:58;;;;;;;0.10;0.10;;;;;;;8.88;100.00;101350.78;10398601;28;20049;-80
2022/09/25 20:31:59;;;;;;;0.00;0.00;;;;;;;9.05;100.00;101360.06;10409770;28;20073;-79
2022/09/25 20:37:02;;;;;;;0.00;0.00;;;;;;;8.98;100.00;101355.50;10406632;28;20136;-80
2022/09/25 20:42:05;;;;;;;0.00;0.00;;;;;;;8.76;100.00;101351.19;10420241;28;20437;-79
2022/09/25 20:47:07;;;;;;;0.43;0.22;;;;;;;8.63;100.00;101359.19;10419897;28;20448;-79
2022/09/25 20:52:10;;;;;;;0.35;0.30;;;;;;;8.76;100.00;101343.47;10410908;28;20161;-79
2022/09/25 20:57:11;;;;;;;0.17;0.10;;;;;;;8.71;100.00;101324.44;10410913;28;20071;-79
2022/09/25 21:02:13;;;;;;;0.20;0.13;;;;;;;8.76;100.00;101330.63;10394228;28;20072;-79
2022/09/25 21:07:14;;;;;;;0.30;0.25;;;;;;;8.73;100.00;101330.53;10407190;28;20042;-79
2022/09/25 21:12:18;;;;;;;0.03;0.03;;;;;;;8.64;100.00;101325.88;10402386;28;20041;-79
2022/09/25 21:17:20;;;;;;;3.95;0.68;;;;;;;8.78;100.00;101318.72;10396140;28;20065;-79
2022/09/25 21:22:23;;;;;;;0.30;0.25;;;;;;;8.79;100.00;101310.22;10421206;28;20564;-79
2022/09/25 21:27:29;;;;;;;0.10;0.10;;;;;;;8.84;100.00;101298.41;10419466;28;20480;-79
2022/09/25 21:32:30;;;;;;;0.68;0.50;;;;;;;8.93;100.00;101290.19;10418796;28;20058;-79
2022/09/25 21:37:32;;;;;;;0.65;0.17;;;;;;;8.74;100.00;101275.75;10412680;28;20080;-79
2022/09/25 21:42:33;;;;;;;0.35;0.30;;;;;;;8.50;100.00;101266.25;10410177;28;20548;-79
2022/09/25 21:47:35;;;;;;;0.00;0.00;;;;;;;8.64;100.00;101278.78;10410656;28;20049;-79
2022/09/25 21:52:38;;;;;;;0.43;0.10;;;;;;;8.56;100.00;101281.03;10385755;28;20370;-79
2022/09/25 21:57:40;;;;;;;0.10;0.10;;;;;;;8.48;100.00;101293.56;10416865;28;20053;-79
2022/09/25 22:02:48;;;;;;;0.05;0.05;;;;;;;8.53;100.00;101302.31;10429864;28;20080;-79
2022/09/25 22:07:50;;;;;;;0.25;0.10;;;;;;;8.80;100.00;101301.69;10416899;28;20076;-78
2022/09/25 22:12:52;;;;;;;0.55;0.38;;;;;;;8.94;100.00;101299.63;10417817;28;20033;-78
2022/09/25 22:17:54;;;;;;;0.85;0.38;;;;;;;8.91;100.00;101285.78;10419037;28;20065;-78
2022/09/25 22:22:55;;;;;;;0.10;0.10;;;;;;;8.93;100.00;101290.19;10415612;28;20048;-79
2022/09/25 22:27:57;;;;;;;0.55;0.20;;;;;;;8.71;100.00;101297.03;10416719;28;20128;-79
2022/09/25 22:32:58;;;;;;;0.35;0.35;;;;;;;8.81;100.00;101293.16;10434284;28;20069;-79
2022/09/25 22:38:00;;;;;;;2.85;1.02;;;;;;;8.95;100.00;101381.06;10416688;28;20077;-78
2022/09/25 22:43:02;;;;;;;0.70;0.55;;;;;;;9.04;100.00;101383.16;10412318;28;20552;-78
2022/09/25 22:48:04;;;;;;;0.90;0.68;;;;;;;9.10;100.00;101372.19;10416511;28;20564;-79
2022/09/25 22:53:05;;;;;;;0.63;0.43;;;;;;;9.11;100.00;101366.25;10416701;28;20072;-79
2022/09/25 22:58:07;;;;;;;0.35;0.30;;;;;;;9.21;100.00;101365.81;10415753;28;20120;-79
2022/09/25 23:03:09;;;;;;;0.47;0.43;;;;;;;9.30;100.00;101355.00;10419161;28;20048;-78
2022/09/25 23:08:11;;;;;;;2.55;1.35;;;;;;;9.31;100.00;101336.19;10416543;28;20041;-79
2022/09/25 23:13:12;;;;;;;0.57;0.57;;;;;;;9.36;100.00;101329.50;10416006;28;20124;-79
2022/09/25 23:18:14;;;;;;;1.88;0.63;;;;;;;9.38;100.00;101322.72;10413962;28;20072;-78
2022/09/25 23:23:15;;;;;;;0.45;0.30;;;;;;;9.38;100.00;101304.72;10415488;28;20037;-79
2022/09/25 23:28:17;;;;;;;0.32;0.32;;;;;;;9.36;100.00;101293.50;10414315;28;20405;-79
2022/09/25 23:33:18;;;;;;;0.55;0.50;;;;;;;9.36;100.00;101272.94;10423232;28;20452;-79
2022/09/25 23:38:20;;;;;;;0.90;0.47;;;;;;;9.36;100.00;101267.78;10410543;28;20042;-78
2022/09/25 23:43:21;;;;;;;0.80;0.60;;;;;;;9.41;100.00;101261.13;10398091;28;20048;-78
2022/09/25 23:48:23;;;;;;;0.55;0.20;;;;;;;9.45;100.00;101244.97;10397327;28;20053;-78
2022/09/25 23:53:25;;;;;;;1.48;0.98;;;;;;;9.47;100.00;101237.31;10406075;28;20045;-78
2022/09/25 23:58:27;;;;;;;0.10;0.10;;;;;;;9.52;100.00;101222.94;10411205;28;20460;-78
